Time;durP1;ratioP1;P1;durP2;ratioP2;P2;SDS_P1;SDS_P2;PMS_P1;PMS_P2;Temp;Humidity;BMP_temperature;BMP_pressure;BME280_temperature;BME280_humidity;BME280_pressure;Samples;Min_cycle;Max_cycle;Signal;HPM_P1;HPM_P2
2023/10/25 00:01:16;;;;;;;7.10;5.60;;;;;;;8.03;100.00;100179.19;5112933;27;20556;-77
2023/10/25 00:03:43;;;;;;;7.13;5.10;;;;;;;8.02;100.00;100175.06;5113075;27;20044;-77
2023/10/25 00:06:10;;;;;;;7.40;5.43;;;;;;;8.00;100.00;100169.47;5112374;28;20189;-77
2023/10/25 00:08:36;;;;;;;6.93;5.57;;;;;;;7.98;100.00;100175.22;5112732;27;20044;-76
2023/10/25 00:11:07;;;;;;;6.15;5.55;;;;;;;7.98;100.00;100174.50;5113014;27;20097;-77
2023/10/25 00:13:35;;;;;;;9.97;5.67;;;;;;;7.95;100.00;100176.09;5112872;28;20040;-77
2023/10/25 00:16:02;;;;;;;7.20;5.45;;;;;;;7.92;100.00;100163.72;5112488;27;20048;-77
2023/10/25 00:18:30;;;;;;;6.72;5.85;;;;;;;7.90;100.00;100166.06;5112360;27;20041;-77
2023/10/25 00:20:57;;;;;;;10.13;5.25;;;;;;;7.89;100.00;100167.22;5112481;27;20044;-77
2023/10/25 00:23:24;;;;;;;6.72;5.45;;;;;;;7.87;100.00;100166.91;5112739;27;20036;-76
2023/10/25 00:25:51;;;;;;;7.90;5.47;;;;;;;7.86;100.00;100162.06;5113017;28;20409;-76
2023/10/25 00:28:18;;;;;;;12.15;5.60;;;;;;;7.85;100.00;100160.56;5112852;27;20158;-76
2023/10/25 00:30:44;;;;;;;7.35;5.55;;;;;;;7.83;100.00;100158.34;5112811;27;20045;-77
2023/10/25 00:33:12;;;;;;;11.10;5.53;;;;;;;7.81;100.00;100158.03;5110353;28;20059;-77
2023/10/25 00:35:41;;;;;;;6.50;5.25;;;;;;;7.80;100.00;100150.53;5112094;28;20044;-77
2023/10/25 00:38:07;;;;;;;8.23;5.57;;;;;;;7.78;100.00;100156.25;5112254;27;20078;-77
2023/10/25 00:40:34;;;;;;;17.95;5.07;;;;;;;7.76;100.00;100165.81;5110812;28;20081;-77
2023/10/25 00:43:19;;;;;;;12.00;5.47;;;;;;;7.74;100.00;100162.84;5112483;27;20193;-78
2023/10/25 00:46:00;;;;;;;6.32;5.03;;;;;;;7.72;100.00;100162.56;5111109;28;20132;-78
2023/10/25 00:48:29;;;;;;;9.20;5.30;;;;;;;7.70;100.00;100168.28;5111859;27;20098;-77
2023/10/25 00:50:56;;;;;;;6.70;5.40;;;;;;;7.66;100.00;100157.81;5113160;28;20051;-77
2023/10/25 00:53:24;;;;;;;9.90;5.82;;;;;;;7.65;100.00;100156.34;5113841;28;20135;-77
2023/10/25 00:55:55;;;;;;;5.85;5.30;;;;;;;7.64;100.00;100159.41;5115194;27;20519;-77
2023/10/25 00:58:22;;;;;;;;;;;;;;;7.63;100.00;100156.03;5116259;27;20040;-76
2023/10/25 01:00:51;;;;;;;8.90;5.32;;;;;;;7.59;100.00;100160.72;5116112;28;20031;-77
2023/10/25 01:03:18;;;;;;;9.30;6.55;;;;;;;7.58;100.00;100158.50;5115385;27;20123;-77
2023/10/25 01:05:45;;;;;;;9.65;5.47;;;;;;;7.57;100.00;100154.38;5114285;28;20062;-76
2023/10/25 01:08:11;;;;;;;10.55;5.68;;;;;;;7.54;100.00;100155.25;5114073;28;20597;-77
2023/10/25 01:10:38;;;;;;;8.43;5.47;;;;;;;7.52;100.00;100160.97;5114215;28;20131;-78
2023/10/25 01:13:05;;;;;;;6.95;5.68;;;;;;;7.50;100.00;100157.28;5113871;28;20105;-78
2023/10/25 01:15:32;;;;;;;6.00;5.30;;;;;;;7.49;100.00;100159.19;5115252;27;20044;-76
2023/10/25 01:17:59;;;;;;;6.25;5.63;;;;;;;7.47;100.00;100153.59;5114956;27;20056;-76
2023/10/25 01:20:25;;;;;;;7.97;5.10;;;;;;;7.46;100.00;100148.72;5115487;27;20048;-76
2023/10/25 01:22:52;;;;;;;7.45;6.07;;;;;;;7.45;100.00;100152.53;5115531;27;20662;-76
2023/10/25 01:25:18;;;;;;;6.55;5.95;;;;;;;7.45;100.00;100147.97;5114208;28;20059;-76
2023/10/25 01:27:45;;;;;;;8.55;5.85;;;;;;;7.44;100.00;100137.81;5115299;27;20433;-77
2023/10/25 01:30:12;;;;;;;15.07;6.28;;;;;;;7.40;100.00;100140.59;5115177;27;20550;-76
2023/10/25 01:32:39;;;;;;;10.07;5.88;;;;;;;7.39;100.00;100144.41;5113254;28;20094;-76
2023/10/25 01:35:07;;;;;;;8.88;5.47;;;;;;;7.36;100.00;100143.34;5115118;27;20075;-76
2023/10/25 01:37:34;;;;;;;8.23;5.40;;;;;;;7.35;100.00;100139.22;5113829;28;20050;-77
2023/10/25 01:40:01;;;;;;;6.15;5.10;;;;;;;7.35;100.00;100135.84;5113822;28;20067;-76
2023/10/25 01:42:28;;;;;;;9.20;5.35;;;;;;;7.35;100.00;100141.88;5114854;27;20032;-77
2023/10/25 01:44:55;;;;;;;9.77;5.60;;;;;;;7.35;100.00;100135.84;5114944;27;20067;-77
2023/10/25 01:47:22;;;;;;;5.50;4.95;;;;;;;7.33;100.00;100130.97;5113030;28;20052;-77
2023/10/25 01:49:49;;;;;;;5.47;4.95;;;;;;;7.32;100.00;100126.84;5115335;28;20040;-77
2023/10/25 01:52:15;;;;;;;11.05;5.53;;;;;;;7.32;100.00;100126.84;5114920;27;20044;-77
2023/10/25 01:54:45;;;;;;;16.80;5.25;;;;;;;7.31;100.00;100122.72;5114707;27;20470;-76
2023/10/25 01:57:12;;;;;;;7.63;5.50;;;;;;;7.30;100.00;100115.94;5113446;28;20056;-77
2023/10/25 01:59:40;;;;;;;7.03;5.10;;;;;;;7.28;100.00;100109.59;5113429;28;20503;-77
2023/10/25 02:02:07;;;;;;;15.45;5.40;;;;;;;7.27;100.00;100116.06;5112308;27;20127;-77
2023/10/25 02:04:34;;;;;;;8.00;5.07;;;;;;;7.24;100.00;100109.00;5113143;28;20452;-77
2023/10/25 02:07:02;;;;;;;7.18;5.13;;;;;;;7.21;100.00;100112.50;5114709;27;20044;-77
2023/10/25 02:09:29;;;;;;;9.65;4.78;;;;;;;7.20;100.00;100111.00;5114582;27;20523;-77
2023/10/25 02:11:56;;;;;;;7.55;4.93;;;;;;;7.19;100.00;100115.59;5114680;27;20071;-77
2023/10/25 02:14:23;;;;;;;7.78;4.80;;;;;;;7.16;100.00;100108.50;5112515;28;20044;-76
2023/10/25 02:16:50;;;;;;;8.93;5.22;;;;;;;7.12;100.00;100110.53;5113210;28;20174;-77
2023/10/25 02:19:17;;;;;;;9.63;4.90;;;;;;;7.12;100.00;100109.81;5114417;27;20042;-77
2023/10/25 02:21:45;;;;;;;5.55;4.53;;;;;;;7.12;100.00;100109.81;5114710;27;20044;-78
2023/10/25 02:24:15;;;;;;;4.70;4.30;;;;;;;7.10;100.00;100096.25;5112913;28;20036;-77
2023/10/25 02:26:42;;;;;;;6.97;4.70;;;;;;;7.07;100.00;100089.19;5112884;28;20440;-77
2023/10/25 02:29:08;;;;;;;7.05;4.32;;;;;;;7.00;100.00;100098.09;5112609;28;20044;-76
2023/10/25 02:31:36;;;;;;;6.00;4.50;;;;;;;6.97;100.00;100085.72;5113076;28;20036;-77
2023/10/25 02:34:03;;;;;;;5.82;4.40;;;;;;;6.96;100.00;100077.03;5112463;28;20048;-76
2023/10/25 02:36:30;;;;;;;9.55;4.97;;;;;;;6.95;100.00;100077.47;5113872;27;20048;-77
2023/10/25 02:38:57;;;;;;;9.88;4.75;;;;;;;6.94;100.00;100076.00;5114229;28;20043;-77
2023/10/25 02:41:24;;;;;;;6.68;4.30;;;;;;;6.95;100.00;100070.28;5114006;27;20103;-77
2023/10/25 02:43:51;;;;;;;7.50;4.07;;;;;;;6.94;100.00;100070.69;5113976;27;20048;-77
2023/10/25 02:46:18;;;;;;;7.22;4.15;;;;;;;6.92;100.00;100075.69;5114197;27;20044;-77
2023/10/25 02:48:45;;;;;;;6.75;4.15;;;;;;;6.92;100.00;100070.38;5114256;27;20091;-77
2023/10/25 02:51:11;;;;;;;9.98;4.65;;;;;;;6.90;100.00;100064.78;5112059;28;20079;-77
2023/10/25 02:53:38;;;;;;;6.13;4.40;;;;;;;6.88;100.00;100062.56;5113955;27;20138;-77
2023/10/25 02:56:06;;;;;;;9.82;4.55;;;;;;;6.86;100.00;100066.81;5111965;28;20059;-77
2023/10/25 02:58:34;;;;;;;8.13;4.10;;;;;;;6.84;100.00;100067.25;5094918;28;20052;-77
2023/10/25 03:01:01;;;;;;;6.55;3.92;;;;;;;6.82;100.00;100072.22;5113716;27;20527;-77
2023/10/25 03:03:30;;;;;;;7.13;3.95;;;;;;;6.81;100.00;100065.44;5113725;27;20592;-77
2023/10/25 03:05:57;;;;;;;7.32;4.50;;;;;;;6.81;100.00;100075.28;5112003;28;20048;-77
2023/10/25 03:08:25;;;;;;;9.02;4.13;;;;;;;6.79;100.00;100053.84;5112325;28;20055;-77
2023/10/25 03:10:51;;;;;;;12.90;4.47;;;;;;;6.78;100.00;100061.03;5113851;27;20044;-78
2023/10/25 03:13:18;;;;;;;4.30;3.95;;;;;;;6.77;100.00;100056.19;5111098;27;20079;-78
2023/10/25 03:15:45;;;;;;;4.63;4.15;;;;;;;6.74;100.00;100060.41;5113868;27;20048;-79
2023/10/25 03:18:11;;;;;;;4.90;3.83;;;;;;;6.71;100.00;100057.88;5111703;28;20544;-78
2023/10/25 03:20:38;;;;;;;5.43;3.92;;;;;;;6.69;100.00;100055.69;5113525;27;20538;-76
2023/10/25 03:23:05;;;;;;;4.65;3.92;;;;;;;6.70;100.00;100057.16;5111956;28;20079;-76
2023/10/25 03:25:31;;;;;;;6.63;4.57;;;;;;;6.67;100.00;100060.66;5113369;27;20071;-76
2023/10/25 03:27:58;;;;;;;4.25;3.70;;;;;;;6.65;100.00;100055.78;5111661;28;20048;-77
2023/10/25 03:30:24;;;;;;;7.18;4.20;;;;;;;6.65;100.00;100061.06;5113252;28;20040;-77
2023/10/25 03:32:51;;;;;;;5.93;4.25;;;;;;;6.66;100.00;100045.94;5113325;27;20561;-77
2023/10/25 03:35:18;;;;;;;6.05;4.63;;;;;;;6.66;100.00;100048.59;5113573;27;20128;-77
2023/10/25 03:37:44;;;;;;;8.10;4.15;;;;;;;6.65;100.00;100050.50;5111986;28;20131;-77
2023/10/25 03:40:11;;;;;;;6.18;4.10;;;;;;;6.61;100.00;100047.22;5094946;28;20040;-78
2023/10/25 03:42:40;;;;;;;9.07;3.83;;;;;;;6.60;100.00;100045.75;5111695;28;20048;-77
2023/10/25 03:45:07;;;;;;;4.97;4.50;;;;;;;6.61;100.00;100044.59;5111939;28;20043;-77
2023/10/25 03:47:40;;;;;;;10.15;4.78;;;;;;;6.60;100.00;100040.47;5111677;28;20574;-77
2023/10/25 03:50:07;;;;;;;6.10;4.47;;;;;;;6.59;100.00;100036.34;5113260;28;20036;-77
2023/10/25 03:52:36;;;;;;;6.15;4.32;;;;;;;6.58;100.00;100032.22;5113035;28;20043;-77
2023/10/25 03:55:03;;;;;;;4.93;4.32;;;;;;;6.55;100.00;100027.03;5111408;28;20545;-77
2023/10/25 03:57:29;;;;;;;5.63;4.38;;;;;;;6.52;100.00;100033.94;5111082;28;20058;-77
2023/10/25 03:59:56;;;;;;;7.45;4.45;;;;;;;6.51;100.00;100029.81;5111266;28;20524;-77
2023/10/25 04:02:23;;;;;;;6.40;4.10;;;;;;;6.50;100.00;100027.59;5111708;28;20044;-77
2023/10/25 04:04:49;;;;;;;7.30;3.95;;;;;;;6.49;100.00;100029.50;5094888;28;20091;-77
2023/10/25 04:07:16;;;;;;;4.13;3.63;;;;;;;6.45;100.00;100034.16;5111681;28;20048;-76
2023/10/25 04:09:42;;;;;;;8.68;4.50;;;;;;;6.41;100.00;100027.50;5111279;28;20047;-76
2023/10/25 04:12:12;;;;;;;8.98;4.40;;;;;;;6.37;100.00;100027.63;5112543;27;20489;-76
2023/10/25 04:14:46;;;;;;;4.45;4.03;;;;;;;6.38;100.00;100023.09;5111382;28;20499;-76
2023/10/25 04:17:12;;;;;;;8.90;4.13;;;;;;;6.34;100.00;100020.56;5111132;28;20084;-76
2023/10/25 04:19:40;;;;;;;6.22;4.45;;;;;;;6.28;100.00;100014.34;5111460;28;20071;-77
2023/10/25 04:22:07;;;;;;;6.55;4.78;;;;;;;6.27;100.00;100012.84;5112454;28;20055;-77
2023/10/25 04:24:34;;;;;;;6.53;3.78;;;;;;;6.24;100.00;100009.16;5114636;27;20553;-77
2023/10/25 04:27:01;;;;;;;8.88;3.92;;;;;;;6.23;100.00;100004.31;5115616;27;20044;-77
2023/10/25 04:29:28;;;;;;;6.43;4.30;;;;;;;6.25;100.00;99997.41;5116031;27;20055;-77
2023/10/25 04:31:55;;;;;;;8.00;4.40;;;;;;;6.24;100.00;100000.50;5116035;28;20531;-76
2023/10/25 04:34:22;;;;;;;4.80;4.32;;;;;;;6.24;100.00;100006.53;5114541;28;20051;-76
2023/10/25 04:36:49;;;;;;;4.45;4.03;;;;;;;6.23;100.00;100002.41;5116463;27;20044;-76
2023/10/25 04:39:16;;;;;;;5.03;4.20;;;;;;;6.23;100.00;99993.72;5116110;27;20056;-76
2023/10/25 04:41:42;;;;;;;5.93;4.57;;;;;;;6.22;100.00;99990.34;5115251;27;20509;-76
2023/10/25 04:44:09;;;;;;;6.90;3.92;;;;;;;6.21;100.00;99994.16;5114505;28;20532;-76
2023/10/25 04:46:35;;;;;;;6.15;4.47;;;;;;;6.23;100.00;99991.81;5116162;27;20560;-77
2023/10/25 04:49:03;;;;;;;8.07;4.55;;;;;;;6.25;100.00;99986.84;5115963;28;20513;-76
2023/10/25 04:51:29;;;;;;;5.28;4.88;;;;;;;6.27;100.00;99987.16;5116389;27;20046;-77
2023/10/25 04:53:56;;;;;;;5.00;4.50;;;;;;;6.30;100.00;99985.56;5115528;27;20520;-77
2023/10/25 04:56:23;;;;;;;6.97;4.82;;;;;;;6.34;100.00;99979.00;5114199;28;20083;-77
2023/10/25 04:58:49;;;;;;;5.07;4.15;;;;;;;6.40;100.00;99975.81;5116447;27;20044;-76
2023/10/25 05:01:16;;;;;;;8.35;5.13;;;;;;;6.42;100.00;99976.09;5116057;27;20044;-77
2023/10/25 05:03:43;;;;;;;9.10;6.07;;;;;;;6.46;100.00;99976.72;5112811;28;20052;-77
2023/10/25 05:06:11;;;;;;;10.95;5.35;;;;;;;6.50;100.00;99966.78;5095217;28;20037;-77
2023/10/25 05:08:38;;;;;;;9.50;4.55;;;;;;;6.53;100.00;99958.72;5094186;28;20563;-77
2023/10/25 05:11:05;;;;;;;7.70;4.70;;;;;;;6.57;100.00;99967.28;5095150;28;20045;-77
2023/10/25 05:13:32;;;;;;;7.32;4.57;;;;;;;6.59;100.00;99966.84;5094983;28;20048;-77
2023/10/25 05:16:00;;;;;;;8.73;4.32;;;;;;;6.62;100.00;99960.69;5093568;28;20523;-77
2023/10/25 05:18:27;;;;;;;8.45;4.80;;;;;;;6.63;100.00;99962.16;5094777;28;20127;-77
2023/10/25 05:20:58;;;;;;;8.32;4.75;;;;;;;6.64;100.00;99961.75;5095062;28;20414;-77
2023/10/25 05:23:32;;;;;;;7.78;4.50;;;;;;;6.67;100.00;99965.44;5076336;28;20505;-77
2023/10/25 05:26:02;;;;;;;9.55;4.60;;;;;;;6.67;100.00;99965.44;5093882;28;20776;-77
2023/10/25 05:28:30;;;;;;;13.52;4.93;;;;;;;6.67;100.00;99960.16;5095399;28;20048;-78
2023/10/25 05:31:02;;;;;;;5.75;4.50;;;;;;;6.68;100.00;99961.63;5094896;28;20055;-77
2023/10/25 05:33:32;;;;;;;5.57;4.15;;;;;;;6.68;100.00;99958.97;5093104;28;20053;-77
2023/10/25 05:36:00;;;;;;;11.98;4.70;;;;;;;6.69;100.00;99955.91;5094603;28;20048;-78
2023/10/25 05:38:27;;;;;;;5.93;4.25;;;;;;;6.71;100.00;99950.19;5093796;28;20048;-78
2023/10/25 05:40:54;;;;;;;6.50;4.70;;;;;;;6.70;100.00;99951.34;5094848;28;20068;-78
2023/10/25 05:43:28;;;;;;;7.53;4.05;;;;;;;6.71;100.00;99942.25;5094801;28;20490;-78
2023/10/25 05:45:54;;;;;;;4.95;4.40;;;;;;;6.72;100.00;99943.72;5094955;28;20037;-78
2023/10/25 05:48:21;;;;;;;5.43;4.25;;;;;;;6.72;100.00;99943.72;5094536;28;20049;-78
2023/10/25 05:50:50;;;;;;;5.07;4.20;;;;;;;6.73;100.00;99942.56;5094632;28;20522;-78
2023/10/25 05:53:18;;;;;;;10.50;4.35;;;;;;;6.75;100.00;99945.50;5093896;28;20044;-77
2023/10/25 05:55:46;;;;;;;6.35;4.28;;;;;;;6.75;100.00;99940.22;5092745;28;20049;-77
2023/10/25 05:58:13;;;;;;;5.00;4.28;;;;;;;6.77;100.00;99937.88;5092892;28;20106;-77
2023/10/25 06:00:45;;;;;;;7.30;5.13;;;;;;;6.79;100.00;99940.84;5092773;28;20062;-78
2023/10/25 06:03:19;;;;;;;8.95;4.78;;;;;;;6.80;100.00;99937.00;5094569;28;20489;-77
2023/10/25 06:06:00;;;;;;;9.00;4.40;;;;;;;6.82;100.00;99928.63;5094387;28;20049;-78
2023/10/25 06:08:27;;;;;;;7.85;4.20;;;;;;;6.84;100.00;99926.28;5093738;28;20083;-77
2023/10/25 06:10:54;;;;;;;6.15;4.60;;;;;;;6.86;100.00;99924.69;5093067;28;20047;-77
2023/10/25 06:13:21;;;;;;;7.97;4.20;;;;;;;6.88;100.00;99917.06;5094044;28;20045;-78
2023/10/25 06:15:48;;;;;;;10.27;4.47;;;;;;;6.91;100.00;99926.78;5094328;28;20529;-78
2023/10/25 06:18:16;;;;;;;5.30;4.53;;;;;;;6.94;100.00;99917.97;5092429;28;20075;-78
2023/10/25 06:20:42;;;;;;;7.88;4.20;;;;;;;6.96;100.00;99907.69;5093933;28;20574;-78
2023/10/25 06:23:09;;;;;;;5.40;4.32;;;;;;;6.98;100.00;99907.25;5093796;28;20454;-78
2023/10/25 06:25:36;;;;;;;11.25;4.75;;;;;;;7.00;100.00;99908.28;5093802;28;20045;-79
2023/10/25 06:28:02;;;;;;;13.68;4.65;;;;;;;7.02;100.00;99911.25;5093350;28;20048;-80
2023/10/25 06:30:29;;;;;;;10.38;4.80;;;;;;;7.04;100.00;99913.47;5093931;28;20580;-80
2023/10/25 06:32:59;;;;;;;8.10;4.57;;;;;;;7.08;100.00;99908.03;5093926;28;20048;-80
2023/10/25 06:35:26;;;;;;;5.45;4.50;;;;;;;7.09;100.00;99909.50;5093004;28;20075;-81
2023/10/25 06:37:56;;;;;;;7.65;4.82;;;;;;;7.12;100.00;99911.28;5092465;28;20076;-80
2023/10/25 06:40:23;;;;;;;8.68;4.50;;;;;;;7.14;100.00;99906.31;5093145;28;20510;-79
2023/10/25 06:42:52;;;;;;;8.95;5.10;;;;;;;7.15;100.00;99905.88;5092944;28;20090;-77
2023/10/25 06:45:19;;;;;;;8.43;4.97;;;;;;;7.17;100.00;99900.88;5094014;28;20043;-79
2023/10/25 06:47:46;;;;;;;5.15;4.65;;;;;;;7.19;100.00;99903.84;5092650;28;20044;-77
2023/10/25 06:50:14;;;;;;;7.32;5.15;;;;;;;7.21;100.00;99900.72;5093048;28;20618;-78
2023/10/25 06:52:41;;;;;;;9.38;5.25;;;;;;;7.23;100.00;99901.75;5093362;28;20106;-79
2023/10/25 06:55:08;;;;;;;7.13;4.50;;;;;;;7.27;100.00;99891.03;5093199;28;20053;-79
2023/10/25 06:57:35;;;;;;;5.80;4.72;;;;;;;7.27;100.00;99889.13;5093688;28;20296;-79
2023/10/25 07:00:06;;;;;;;12.77;5.10;;;;;;;7.30;100.00;99884.88;5091929;28;20052;-78
2023/10/25 07:02:40;;;;;;;7.82;5.40;;;;;;;7.32;100.00;99870.03;5075041;28;20464;-78
2023/10/25 07:05:12;;;;;;;6.50;5.68;;;;;;;7.35;100.00;99873.72;5091002;28;20523;-79
2023/10/25 07:07:41;;;;;;;7.97;5.28;;;;;;;7.37;100.00;99876.66;5091903;28;20686;-79
2023/10/25 07:10:08;;;;;;;9.13;5.40;;;;;;;7.40;100.00;99880.34;5074919;28;20044;-79
2023/10/25 07:12:35;;;;;;;7.43;5.35;;;;;;;7.43;100.00;99879.47;5091804;28;20049;-79
2023/10/25 07:15:02;;;;;;;9.93;5.35;;;;;;;7.45;100.00;99877.84;5093080;28;20121;-78
2023/10/25 07:17:29;;;;;;;9.05;5.05;;;;;;;7.48;100.00;99874.34;5091491;28;20048;-78
2023/10/25 07:19:58;;;;;;;8.38;5.43;;;;;;;7.51;100.00;99872.72;5090740;28;20048;-78
2023/10/25 07:22:28;;;;;;;10.38;5.38;;;;;;;7.55;100.00;99868.03;5091561;28;20047;-77
2023/10/25 07:24:58;;;;;;;8.98;6.00;;;;;;;7.57;100.00;99861.13;5092966;28;20076;-79
2023/10/25 07:27:25;;;;;;;9.25;5.90;;;;;;;7.60;100.00;99867.41;5092777;28;20075;-79
2023/10/25 07:29:51;;;;;;;8.52;5.95;;;;;;;7.64;100.00;99863.47;5091511;28;20481;-79
2023/10/25 07:32:18;;;;;;;10.27;5.95;;;;;;;7.67;100.00;99859.94;5091042;28;20036;-78
2023/10/25 07:34:45;;;;;;;11.88;5.45;;;;;;;7.71;100.00;99857.13;5092562;28;20053;-79
2023/10/25 07:37:11;;;;;;;15.05;6.35;;;;;;;7.74;100.00;99850.97;5091364;28;20040;-77
2023/10/25 07:39:40;;;;;;;8.88;6.20;;;;;;;7.77;100.00;99844.78;5092328;28;20777;-77
2023/10/25 07:42:07;;;;;;;10.95;6.07;;;;;;;7.82;100.00;99843.47;5091854;28;20064;-77
2023/10/25 07:44:34;;;;;;;8.68;5.95;;;;;;;7.85;100.00;99842.59;5092757;28;20120;-77
2023/10/25 07:47:01;;;;;;;13.88;5.28;;;;;;;7.89;100.00;99835.22;5091269;28;20049;-77
2023/10/25 07:49:28;;;;;;;6.65;4.93;;;;;;;7.91;100.00;99824.91;5092004;28;20052;-77
2023/10/25 07:51:54;;;;;;;10.07;5.20;;;;;;;7.96;100.00;99826.97;5092548;28;20090;-77
2023/10/25 07:54:21;;;;;;;6.20;4.80;;;;;;;8.00;100.00;99822.25;5092280;28;20071;-77
2023/10/25 07:56:48;;;;;;;5.57;4.90;;;;;;;8.04;100.00;99818.28;5092258;28;20137;-77
2023/10/25 07:59:18;;;;;;;8.02;4.78;;;;;;;8.09;100.00;99816.94;5090899;28;20052;-77
2023/10/25 08:01:45;;;;;;;5.38;4.85;;;;;;;8.13;100.00;99809.56;5092850;28;20127;-77
2023/10/25 08:04:11;;;;;;;6.95;4.25;;;;;;;8.17;100.00;99804.84;5090530;28;20045;-77
2023/10/25 08:06:38;;;;;;;9.32;4.32;;;;;;;8.20;100.00;99798.66;5089031;28;20139;-77
2023/10/25 08:09:05;;;;;;;6.50;4.57;;;;;;;8.22;100.00;99790.28;5091010;28;20045;-77
2023/10/25 08:11:35;;;;;;;8.68;4.30;;;;;;;8.25;100.00;99802.63;5089334;28;20460;-77
2023/10/25 08:14:02;;;;;;;4.55;4.05;;;;;;;8.30;100.00;99791.44;5090729;28;20045;-77
2023/10/25 08:16:29;;;;;;;5.85;4.20;;;;;;;8.33;100.00;99787.91;5089483;28;20115;-77
2023/10/25 08:18:56;;;;;;;5.97;4.15;;;;;;;8.35;100.00;99791.59;5089975;28;20041;-76
2023/10/25 08:21:23;;;;;;;10.50;4.15;;;;;;;8.38;100.00;99787.31;5090543;28;20049;-77
2023/10/25 08:23:54;;;;;;;10.13;4.10;;;;;;;8.43;100.00;99784.03;5070952;28;20056;-77
2023/10/25 08:26:25;;;;;;;6.50;3.45;;;;;;;8.47;100.00;99783.88;5070134;28;20518;-78
2023/10/25 08:28:52;;;;;;;6.28;3.72;;;;;;;8.49;100.00;99778.88;5069402;28;20049;-77
2023/10/25 08:31:19;;;;;;;4.97;4.00;;;;;;;8.52;100.00;99780.63;5069725;28;20037;-78
2023/10/25 08:33:46;;;;;;;4.43;3.72;;;;;;;8.55;100.00;99782.38;5089869;28;20098;-77
2023/10/25 08:36:12;;;;;;;3.88;3.42;;;;;;;8.55;100.00;99775.16;5090529;28;20102;-77
2023/10/25 08:38:39;;;;;;;6.63;4.10;;;;;;;8.56;100.00;99773.97;5090616;28;20767;-77
2023/10/25 08:41:07;;;;;;;10.15;4.90;;;;;;;8.58;100.00;99773.53;5088816;28;20053;-78
2023/10/25 08:43:35;;;;;;;8.82;4.07;;;;;;;8.61;100.00;99773.38;5089478;28;20655;-77
2023/10/25 08:46:03;;;;;;;4.47;4.07;;;;;;;8.62;100.00;99766.16;5088808;28;20041;-77
2023/10/25 08:48:31;;;;;;;10.00;3.63;;;;;;;8.63;100.00;99765.69;5088844;28;20111;-79
2023/10/25 08:51:03;;;;;;;7.70;4.10;;;;;;;8.66;100.00;99766.72;5089129;28;20071;-79
2023/10/25 08:53:30;;;;;;;6.15;3.90;;;;;;;8.67;100.00;99776.88;5090382;28;20072;-79
2023/10/25 08:55:58;;;;;;;8.48;3.63;;;;;;;8.69;100.00;99773.78;5088385;28;20179;-79
2023/10/25 08:58:25;;;;;;;7.60;4.10;;;;;;;8.71;100.00;99779.38;5090451;28;20049;-79
2023/10/25 09:00:54;;;;;;;6.95;3.70;;;;;;;8.75;100.00;99779.97;5088767;28;20144;-77
2023/10/25 09:03:47;;;;;;;5.97;4.10;;;;;;;8.80;100.00;99775.94;5090199;28;20047;-79
2023/10/25 09:06:24;;;;;;;5.47;4.85;;;;;;;8.82;100.00;99774.28;5088169;28;20048;-77
2023/10/25 09:09:05;;;;;;;10.32;5.50;;;;;;;8.87;100.00;99762.34;5089055;28;20045;-78
2023/10/25 09:11:43;;;;;;;8.75;6.30;;;;;;;8.88;100.00;99764.53;5090157;28;20048;-79
2023/10/25 09:14:13;;;;;;;5.80;5.15;;;;;;;8.92;100.00;99762.47;5094012;28;20559;-78
2023/10/25 09:16:42;;;;;;;7.28;6.03;;;;;;;8.96;100.00;99760.38;5091546;28;20117;-79
2023/10/25 09:19:10;;;;;;;12.40;5.93;;;;;;;8.98;100.00;99760.66;5092082;28;20061;-78
2023/10/25 09:21:37;;;;;;;6.57;5.60;;;;;;;9.02;100.00;99755.19;5093668;28;20524;-80
2023/10/25 09:24:07;;;;;;;6.50;5.57;;;;;;;9.05;100.00;99750.88;5092381;28;20397;-79
2023/10/25 09:26:36;;;;;;;6.75;4.65;;;;;;;9.07;100.00;99745.88;5091966;28;20442;-79
2023/10/25 09:29:03;;;;;;;5.97;4.82;;;;;;;9.09;100.00;99738.19;5093015;28;20162;-79
2023/10/25 09:31:31;;;;;;;8.13;4.57;;;;;;;9.10;100.00;99734.34;5091529;28;20044;-78
2023/10/25 09:34:00;;;;;;;5.38;4.40;;;;;;;9.10;100.00;99740.38;5093275;28;20528;-77
2023/10/25 09:36:27;;;;;;;6.55;4.13;;;;;;;9.12;100.00;99737.28;5092758;28;20040;-77
2023/10/25 09:38:55;;;;;;;10.00;4.15;;;;;;;9.12;100.00;99732.69;5093072;28;20103;-79
2023/10/25 09:41:26;;;;;;;4.22;3.83;;;;;;;9.14;100.00;99729.59;5093169;28;20498;-77
2023/10/25 09:43:58;;;;;;;4.20;3.90;;;;;;;9.13;100.00;99733.44;5092956;28;20040;-78
2023/10/25 09:46:31;;;;;;;8.13;3.80;;;;;;;9.13;100.00;99744.06;5091344;28;20056;-79
2023/10/25 09:49:06;;;;;;;5.40;3.80;;;;;;;9.14;100.00;99734.91;5091589;28;20156;-79
2023/10/25 09:51:52;;;;;;;4.38;3.85;;;;;;;9.16;100.00;99732.53;5093334;28;20036;-77
2023/10/25 09:54:27;;;;;;;6.72;4.00;;;;;;;9.17;100.00;99726.03;5093467;28;20417;-78
2023/10/25 09:56:55;;;;;;;4.90;4.38;;;;;;;9.16;100.00;99724.56;5092919;28;20053;-78
2023/10/25 09:59:24;;;;;;;5.88;3.80;;;;;;;9.15;100.00;99715.88;5091114;28;20049;-79
2023/10/25 10:01:52;;;;;;;7.32;4.32;;;;;;;9.16;100.00;99711.28;5091300;28;20106;-78
2023/10/25 10:04:33;;;;;;;8.60;4.38;;;;;;;9.15;100.00;99697.28;5091659;28;20523;-77
2023/10/25 10:07:28;;;;;;;14.85;4.70;;;;;;;9.17;100.00;99699.47;5091666;28;20084;-79
2023/10/25 10:10:24;;;;;;;5.22;4.45;;;;;;;9.18;100.00;99693.72;5092847;28;20040;-80
2023/10/25 10:12:50;;;;;;;5.45;4.30;;;;;;;9.19;100.00;99683.84;5078045;28;20552;-80
2023/10/25 10:15:19;;;;;;;9.30;4.63;;;;;;;9.19;100.00;99687.22;5092631;28;20048;-79
2023/10/25 10:17:45;;;;;;;10.60;5.35;;;;;;;9.21;100.00;99700.03;5091390;28;20725;-79
2023/10/25 10:20:23;;;;;;;10.30;5.18;;;;;;;9.23;100.00;99697.66;5091376;28;20052;-79
2023/10/25 10:23:04;;;;;;;6.05;4.45;;;;;;;9.23;100.00;99684.38;5092677;28;20037;-80
2023/10/25 10:25:45;;;;;;;7.85;4.57;;;;;;;9.26;100.00;99681.53;5092503;28;20567;-80
2023/10/25 10:28:12;;;;;;;5.50;4.40;;;;;;;9.28;100.00;99681.81;5090448;28;20076;-80
2023/10/25 10:30:40;;;;;;;8.43;4.60;;;;;;;9.31;100.00;99677.53;5091046;28;20049;-80
2023/10/25 10:33:10;;;;;;;5.75;4.22;;;;;;;9.32;100.00;99671.00;5090600;28;20091;-80
2023/10/25 10:35:49;;;;;;;6.15;4.72;;;;;;;9.36;100.00;99669.66;5090290;28;20474;-80
2023/10/25 10:38:16;;;;;;;5.22;4.68;;;;;;;9.39;100.00;99660.03;5073974;28;20050;-79
2023/10/25 10:40:48;;;;;;;5.15;4.65;;;;;;;9.44;100.00;99653.38;5092079;28;20125;-79
2023/10/25 10:43:15;;;;;;;7.53;4.18;;;;;;;9.46;100.00;99648.31;5092120;28;20040;-79
2023/10/25 10:45:44;;;;;;;5.07;4.68;;;;;;;9.46;100.00;99657.03;5090891;28;20485;-79
2023/10/25 10:48:19;;;;;;;6.15;4.68;;;;;;;9.47;100.00;99644.47;5091793;28;20044;-79
2023/10/25 10:50:49;;;;;;;9.10;4.50;;;;;;;9.49;100.00;99647.41;5091433;28;20094;-79
2023/10/25 10:53:15;;;;;;;6.43;4.55;;;;;;;9.52;100.00;99630.56;5090423;28;20044;-78
2023/10/25 10:55:43;;;;;;;5.50;4.57;;;;;;;9.55;100.00;99629.66;5091216;28;20076;-79
2023/10/25 10:58:11;;;;;;;7.35;5.00;;;;;;;9.59;100.00;99630.19;5091602;28;20047;-79
2023/10/25 11:00:44;;;;;;;7.78;5.10;;;;;;;9.60;100.00;99626.31;5091515;28;20588;-79
2023/10/25 11:03:11;;;;;;;11.30;4.93;;;;;;;9.62;100.00;99624.66;5092354;28;20268;-80
2023/10/25 11:05:37;;;;;;;6.80;4.82;;;;;;;9.61;100.00;99617.16;5091809;28;20128;-79
2023/10/25 11:08:10;;;;;;;7.93;4.90;;;;;;;9.62;100.00;99615.97;5091989;28;20139;-79
2023/10/25 11:10:37;;;;;;;;;;;;;;;9.66;100.00;99619.91;5092285;28;20532;-78
2023/10/25 11:13:10;;;;;;;8.07;4.97;;;;;;;9.65;100.00;99610.47;5091430;28;19951;-78
2023/10/25 11:15:38;;;;;;;7.47;5.05;;;;;;;9.67;100.00;99602.78;5073393;28;20527;-80
2023/10/25 11:18:08;;;;;;;4.95;4.45;;;;;;;9.69;100.00;99599.66;5090407;28;20135;-80
2023/10/25 11:20:37;;;;;;;12.27;4.97;;;;;;;9.68;100.00;99598.94;5090584;28;20084;-80
2023/10/25 11:23:04;;;;;;;11.02;4.85;;;;;;;9.71;100.00;99586.66;5090117;28;20044;-80
2023/10/25 11:25:31;;;;;;;8.32;4.90;;;;;;;9.71;100.00;99586.66;5090883;28;20117;-80
2023/10/25 11:27:58;;;;;;;5.05;4.53;;;;;;;9.72;100.00;99585.44;5090300;28;20103;-79
2023/10/25 11:30:25;;;;;;;8.65;4.95;;;;;;;9.72;100.00;99582.06;5091562;28;20052;-79
2023/10/25 11:32:52;;;;;;;5.40;4.90;;;;;;;9.74;100.00;99580.41;5090094;28;20041;-79
2023/10/25 11:35:21;;;;;;;7.07;4.80;;;;;;;9.75;100.00;99571.25;5089517;28;20555;-79